Time;durP1;ratioP1;P1;durP2;ratioP2;P2;SDS_P1;SDS_P2;PMS_P1;PMS_P2;Temp;Humidity;BMP_temperature;BMP_pressure;BME280_temperature;BME280_humidity;BME280_pressure;Samples;Min_cycle;Max_cycle;Signal;HPM_P1;HPM_P2
2023/07/13 00:02:17;;;;;;;2.63;0.90;;;20.30;55.20;;;;;;5068345;28;20697;-80
2023/07/13 00:04:42;;;;;;;2.77;0.90;;;20.30;55.30;;;;;;5068868;28;21200;-80
2023/07/13 00:07:08;;;;;;;2.90;1.03;;;20.30;55.30;;;;;;5051602;28;20593;-79
2023/07/13 00:09:34;;;;;;;3.10;1.00;;;20.20;55.50;;;;;;5068855;28;20215;-79
2023/07/13 00:12:01;;;;;;;2.60;0.90;;;20.20;55.50;;;;;;5069729;28;20614;-79
2023/07/13 00:14:28;;;;;;;3.00;0.77;;;20.20;55.70;;;;;;5068958;28;20634;-79
2023/07/13 00:16:55;;;;;;;4.30;0.80;;;20.10;55.70;;;;;;5068157;28;20579;-79
2023/07/13 00:19:21;;;;;;;4.20;0.90;;;20.10;55.90;;;;;;5074111;28;20579;-79
2023/07/13 00:21:47;;;;;;;2.90;0.80;;;20.10;56.10;;;;;;5069277;28;20647;-79
2023/07/13 00:24:15;;;;;;;2.40;0.70;;;20.10;56.20;;;;;;5070951;28;20574;-79
2023/07/13 00:26:44;;;;;;;1.73;0.67;;;20.10;56.50;;;;;;5068516;28;20570;-80
2023/07/13 00:29:10;;;;;;;3.10;0.60;;;20.00;56.50;;;;;;5071034;28;20602;-79
2023/07/13 00:31:36;;;;;;;3.97;0.70;;;20.00;56.50;;;;;;5071785;28;21169;-78
2023/07/13 00:34:04;;;;;;;1.70;0.60;;;20.00;56.70;;;;;;5071916;28;20582;-79
2023/07/13 00:36:30;;;;;;;4.33;0.90;;;20.00;56.90;;;;;;5072414;28;20643;-79
2023/07/13 00:38:57;;;;;;;3.07;0.80;;;20.00;56.90;;;;;;5055605;28;20933;-79
2023/07/13 00:41:24;;;;;;;2.83;0.60;;;20.00;57.00;;;;;;5073258;28;20610;-78
2023/07/13 00:43:50;;;;;;;4.07;1.00;;;20.00;57.20;;;;;;5071666;28;20969;-79
2023/07/13 00:46:29;;;;;;;1.73;0.70;;;20.00;57.30;;;;;;5055384;28;20597;-79
2023/07/13 00:48:59;;;;;;;2.60;0.80;;;19.90;57.70;;;;;;5071420;28;20183;-79
2023/07/13 00:51:31;;;;;;;3.10;0.90;;;19.90;57.60;;;;;;5071748;28;20625;-79
2023/07/13 00:54:03;;;;;;;3.53;0.60;;;19.80;57.70;;;;;;5038708;28;21172;-79
2023/07/13 00:56:29;;;;;;;4.93;0.80;;;19.80;57.70;;;;;;5076979;28;20598;-80
2023/07/13 00:58:57;;;;;;;3.00;0.80;;;19.70;57.70;;;;;;5071553;28;20684;-80
2023/07/13 01:01:23;;;;;;;2.33;0.70;;;19.70;58.00;;;;;;5054730;28;20618;-80
2023/07/13 01:03:48;;;;;;;3.37;0.90;;;19.70;58.00;;;;;;5054848;28;21038;-79
2023/07/13 01:06:14;;;;;;;1.93;1.00;;;19.70;58.10;;;;;;5072256;28;20211;-80
2023/07/13 01:08:40;;;;;;;2.93;0.70;;;19.60;58.30;;;;;;5071409;28;20238;-79
2023/07/13 01:11:08;;;;;;;3.07;1.20;;;19.50;58.40;;;;;;5072382;28;20575;-80
2023/07/13 01:13:34;;;;;;;3.00;0.80;;;19.50;58.50;;;;;;5054721;28;20730;-80
2023/07/13 01:16:11;;;;;;;2.80;1.00;;;19.50;58.70;;;;;;5062499;28;20641;-80
2023/07/13 01:18:38;;;;;;;3.77;0.87;;;19.50;59.00;;;;;;5085357;28;20195;-80
2023/07/13 01:21:04;;;;;;;3.50;1.00;;;19.40;58.90;;;;;;5076499;28;20583;-80
2023/07/13 01:23:31;;;;;;;2.30;0.90;;;19.40;59.10;;;;;;5071319;28;20633;-80
2023/07/13 01:25:58;;;;;;;3.30;0.70;;;19.40;59.30;;;;;;5054259;28;20578;-80
2023/07/13 01:28:29;;;;;;;1.90;0.90;;;19.30;60.00;;;;;;5054477;28;20603;-80
2023/07/13 01:30:57;;;;;;;2.97;0.70;;;19.30;59.70;;;;;;5037769;28;20931;-80
2023/07/13 01:33:24;;;;;;;1.70;0.70;;;19.30;59.80;;;;;;5077341;28;20671;-80
2023/07/13 01:35:50;;;;;;;2.97;0.90;;;19.20;59.90;;;;;;5054379;28;20673;-80
2023/07/13 01:38:20;;;;;;;3.20;0.70;;;19.20;60.00;;;;;;5054160;28;20594;-80
2023/07/13 01:40:46;;;;;;;2.40;0.80;;;19.20;60.50;;;;;;5071164;28;20586;-79
2023/07/13 01:43:12;;;;;;;3.00;0.70;;;19.10;60.70;;;;;;5053868;28;20698;-80
2023/07/13 01:45:38;;;;;;;1.50;0.67;;;19.10;61.00;;;;;;5054420;28;21113;-80
2023/07/13 01:48:06;;;;;;;1.87;0.70;;;19.10;61.20;;;;;;5053751;28;20674;-79
2023/07/13 01:50:33;;;;;;;2.33;0.73;;;19.00;61.60;;;;;;5054423;28;20183;-80
2023/07/13 01:52:58;;;;;;;2.30;0.80;;;19.00;61.80;;;;;;5069910;28;20989;-79
2023/07/13 01:55:24;;;;;;;2.47;1.00;;;19.00;62.20;;;;;;5072096;28;20614;-79
2023/07/13 01:57:50;;;;;;;3.10;0.70;;;19.00;62.30;;;;;;5069902;28;20719;-79
2023/07/13 02:00:16;;;;;;;5.73;0.70;;;18.90;62.70;;;;;;5070779;28;20180;-79
2023/07/13 02:02:42;;;;;;;2.83;0.97;;;18.90;62.90;;;;;;5071279;28;20554;-79
2023/07/13 02:05:09;;;;;;;3.70;0.93;;;18.90;63.60;;;;;;5054035;28;20579;-80
2023/07/13 02:07:35;;;;;;;4.77;0.80;;;18.90;63.60;;;;;;5070045;28;21148;-79
2023/07/13 02:10:03;;;;;;;6.33;0.70;;;18.90;63.90;;;;;;5042819;28;20603;-79
2023/07/13 02:12:28;;;;;;;4.50;0.70;;;18.80;64.30;;;;;;5053604;28;20962;-79
2023/07/13 02:14:54;;;;;;;3.10;0.97;;;18.80;64.50;;;;;;5071547;28;21235;-79
2023/07/13 02:17:20;;;;;;;4.23;0.67;;;18.80;64.60;;;;;;5070401;28;20168;-79
2023/07/13 02:19:45;;;;;;;4.77;0.93;;;18.80;64.90;;;;;;5070672;28;20635;-80
2023/07/13 02:22:11;;;;;;;1.70;0.80;;;18.80;65.30;;;;;;5053706;28;20247;-79
2023/07/13 02:24:38;;;;;;;3.07;0.80;;;18.80;65.50;;;;;;5070917;28;20175;-80
2023/07/13 02:27:04;;;;;;;2.53;0.70;;;18.80;66.00;;;;;;5053191;28;20176;-80
2023/07/13 02:29:30;;;;;;;3.20;1.07;;;18.80;66.20;;;;;;5069979;28;21006;-80
2023/07/13 02:31:56;;;;;;;3.10;0.80;;;18.70;66.50;;;;;;5069836;28;20622;-80
2023/07/13 02:34:23;;;;;;;5.20;0.80;;;18.70;66.60;;;;;;5071183;28;20208;-80
2023/07/13 02:36:49;;;;;;;2.43;0.70;;;18.70;67.20;;;;;;5069750;28;20582;-80
2023/07/13 02:39:16;;;;;;;1.90;0.70;;;18.70;67.40;;;;;;5069957;28;20295;-80
2023/07/13 02:41:42;;;;;;;2.60;0.57;;;18.60;68.60;;;;;;5052896;28;20702;-80
2023/07/13 02:44:08;;;;;;;3.33;0.80;;;18.60;68.00;;;;;;5053301;28;20732;-80
2023/07/13 02:46:36;;;;;;;2.87;0.80;;;18.60;68.90;;;;;;5058068;28;20582;-80
2023/07/13 02:49:02;;;;;;;2.57;0.70;;;18.50;69.20;;;;;;5070153;28;20593;-80
2023/07/13 02:51:28;;;;;;;2.27;0.60;;;18.50;68.60;;;;;;5068490;28;20622;-80
2023/07/13 02:53:54;;;;;;;4.07;0.70;;;18.50;69.00;;;;;;5069816;28;20589;-80
2023/07/13 02:56:24;;;;;;;1.40;0.60;;;18.40;69.10;;;;;;5069340;28;20638;-80
2023/07/13 02:58:51;;;;;;;1.50;0.60;;;18.40;69.80;;;;;;5069294;28;20578;-79
2023/07/13 03:01:18;;;;;;;1.53;0.70;;;18.40;69.80;;;;;;5069095;28;20626;-79
2023/07/13 03:03:46;;;;;;;4.70;1.03;;;18.30;70.20;;;;;;5052933;28;20586;-79
2023/07/13 03:06:13;;;;;;;3.37;1.43;;;18.30;70.70;;;;;;5069464;28;20594;-79
2023/07/13 03:08:48;;;;;;;3.50;0.80;;;18.30;71.00;;;;;;5058929;28;20681;-79
2023/07/13 03:11:17;;;;;;;3.50;0.57;;;18.20;71.10;;;;;;5058522;28;20619;-80
2023/07/13 03:13:45;;;;;;;3.13;0.90;;;18.20;71.40;;;;;;5071854;28;20640;-79
2023/07/13 03:16:14;;;;;;;3.27;0.70;;;18.20;72.00;;;;;;5054288;28;20638;-80
2023/07/13 03:18:40;;;;;;;2.50;0.70;;;18.20;72.20;;;;;;5077570;28;20585;-79
2023/07/13 03:21:09;;;;;;;3.40;1.10;;;18.20;72.50;;;;;;5067001;28;20640;-80
2023/07/13 03:23:35;;;;;;;3.80;0.70;;;18.20;73.00;;;;;;5052051;28;20574;-78
2023/07/13 03:26:04;;;;;;;2.70;0.80;;;18.20;73.20;;;;;;5059487;28;20601;-80
2023/07/13 03:28:30;;;;;;;2.50;0.70;;;18.20;73.60;;;;;;5054484;28;20575;-81
2023/07/13 03:31:02;;;;;;;2.00;1.00;;;18.20;73.70;;;;;;5055829;28;21141;-81
2023/07/13 03:33:31;;;;;;;4.60;0.80;;;18.10;74.70;;;;;;5070927;28;20586;-80
2023/07/13 03:35:57;;;;;;;4.43;0.70;;;18.20;74.60;;;;;;5080066;28;20668;-79
2023/07/13 03:38:24;;;;;;;2.63;0.60;;;18.20;74.60;;;;;;5074703;28;20588;-80
2023/07/13 03:40:50;;;;;;;2.30;0.70;;;18.20;75.10;;;;;;5076378;28;20590;-79
2023/07/13 03:43:16;;;;;;;2.83;0.60;;;18.20;75.50;;;;;;5081365;28;20594;-79
2023/07/13 03:45:43;;;;;;;2.00;0.90;;;18.10;75.60;;;;;;5064928;28;20892;-78
2023/07/13 03:48:09;;;;;;;2.00;0.70;;;18.10;76.00;;;;;;5089165;28;20176;-79
2023/07/13 03:50:35;;;;;;;2.63;0.80;;;18.10;76.00;;;;;;5089371;28;20680;-79
2023/07/13 03:53:02;;;;;;;3.10;0.70;;;18.10;76.30;;;;;;5056136;28;20636;-79
2023/07/13 03:55:28;;;;;;;1.67;0.67;;;18.10;76.80;;;;;;5089415;28;20633;-79
2023/07/13 03:57:59;;;;;;;2.23;0.90;;;18.10;77.70;;;;;;5073248;28;20696;-79
2023/07/13 04:00:25;;;;;;;1.70;0.70;;;18.10;77.70;;;;;;5077818;28;21377;-79
2023/07/13 04:02:53;;;;;;;2.97;1.10;;;18.10;78.10;;;;;;5056968;28;20721;-79
2023/07/13 04:05:32;;;;;;;;;;;;;;;;;;;;;
2023/07/13 04:08:02;;;;;;;3.10;0.87;;;18.20;78.80;;;;;;5097966;28;20179;-79
2023/07/13 04:10:30;;;;;;;3.80;0.90;;;18.20;78.80;;;;;;5093214;28;20582;-79
2023/07/13 04:12:56;;;;;;;2.53;0.70;;;18.20;79.30;;;;;;5093295;28;20620;-79
2023/07/13 04:15:22;;;;;;;1.83;0.70;;;18.30;79.70;;;;;;5092834;28;20206;-79
2023/07/13 04:17:47;;;;;;;2.37;0.80;;;18.30;79.90;;;;;;5092831;28;20167;-79
2023/07/13 04:20:13;;;;;;;2.53;0.80;;;18.40;80.50;;;;;;5093449;28;20170;-79
2023/07/13 04:22:39;;;;;;;2.57;0.73;;;18.40;80.70;;;;;;5092667;28;20709;-78
2023/07/13 04:25:05;;;;;;;1.70;0.77;;;18.40;80.70;;;;;;5075968;28;20178;-78
2023/07/13 04:27:31;;;;;;;2.43;0.80;;;18.50;81.10;;;;;;5092501;28;20179;-78
2023/07/13 04:29:57;;;;;;;5.30;0.90;;;18.50;81.30;;;;;;5094133;28;20930;-78
2023/07/13 04:32:22;;;;;;;3.27;0.90;;;18.60;81.80;;;;;;5092473;28;20191;-78
2023/07/13 04:34:53;;;;;;;2.07;0.70;;;18.70;82.90;;;;;;5094183;28;20198;-80
2023/07/13 04:37:19;;;;;;;3.70;0.80;;;19.00;83.80;;;;;;5098636;28;20175;-78
2023/07/13 04:39:45;;;;;;;2.13;0.60;;;19.20;84.60;;;;;;5092629;28;20672;-78
2023/07/13 04:42:11;;;;;;;4.70;0.80;;;19.40;84.60;;;;;;5075037;28;21024;-78
2023/07/13 04:44:36;;;;;;;2.30;0.80;;;19.60;84.20;;;;;;5093719;28;20179;-78
2023/07/13 04:47:02;;;;;;;3.40;0.80;;;19.70;83.90;;;;;;5088060;28;20259;-78
2023/07/13 04:49:28;;;;;;;2.60;0.80;;;19.80;83.60;;;;;;5087256;28;20559;-78
2023/07/13 04:51:54;;;;;;;2.10;0.60;;;19.90;83.30;;;;;;5094354;28;20620;-78
2023/07/13 04:54:21;;;;;;;2.43;0.70;;;19.90;83.50;;;;;;5093707;28;20179;-78
2023/07/13 04:56:47;;;;;;;4.40;0.70;;;20.10;84.10;;;;;;5093016;28;20562;-79
2023/07/13 04:59:19;;;;;;;2.43;0.70;;;20.30;84.60;;;;;;5084072;28;20681;-78
2023/07/13 05:01:50;;;;;;;2.93;0.80;;;20.40;84.70;;;;;;5038789;28;20208;-78
2023/07/13 05:04:17;;;;;;;3.10;0.80;;;20.60;84.40;;;;;;5053575;28;21261;-78
2023/07/13 05:06:42;;;;;;;2.00;0.77;;;20.70;83.90;;;;;;5068877;28;20623;-79
2023/07/13 05:09:08;;;;;;;1.90;0.70;;;20.80;83.80;;;;;;5052759;28;21212;-78
2023/07/13 05:11:34;;;;;;;2.83;0.77;;;21.00;84.40;;;;;;5069373;28;20652;-77
2023/07/13 05:14:01;;;;;;;2.53;0.80;;;21.20;84.20;;;;;;5084889;28;20578;-79
2023/07/13 05:16:27;;;;;;;3.00;1.07;;;21.40;83.90;;;;;;5078190;28;20210;-78
2023/07/13 05:18:53;;;;;;;3.80;1.83;;;21.40;83.40;;;;;;5076638;28;20573;-78
2023/07/13 05:21:19;;;;;;;3.77;0.70;;;21.40;82.90;;;;;;5092881;28;20596;-78
2023/07/13 05:23:45;;;;;;;2.97;0.90;;;21.50;82.70;;;;;;5076031;28;20581;-78
2023/07/13 05:26:11;;;;;;;4.43;1.13;;;21.50;82.40;;;;;;5094689;28;20585;-78
2023/07/13 05:28:37;;;;;;;4.23;0.70;;;21.50;82.20;;;;;;5075893;28;20176;-80
2023/07/13 05:31:04;;;;;;;3.23;0.70;;;21.50;82.20;;;;;;5062612;28;20579;-79
2023/07/13 05:33:30;;;;;;;2.60;0.73;;;21.40;82.00;;;;;;5037278;28;20601;-79
2023/07/13 05:35:56;;;;;;;2.30;0.60;;;21.40;82.30;;;;;;5089327;28;21168;-79
2023/07/13 05:38:22;;;;;;;2.53;0.93;;;21.40;82.50;;;;;;5071674;28;20183;-79
2023/07/13 05:40:49;;;;;;;4.37;0.90;;;21.40;83.40;;;;;;5071355;28;20613;-78
2023/07/13 05:43:15;;;;;;;2.10;0.70;;;21.50;82.90;;;;;;5070624;28;20633;-79
2023/07/13 05:45:41;;;;;;;3.97;0.80;;;21.60;83.30;;;;;;5070703;28;20587;-78
2023/07/13 05:48:07;;;;;;;3.13;0.87;;;21.60;83.30;;;;;;5071949;28;20246;-79
2023/07/13 05:50:32;;;;;;;5.90;0.87;;;21.80;83.60;;;;;;5077337;28;20594;-78
2023/07/13 05:52:58;;;;;;;2.90;1.00;;;21.90;83.80;;;;;;5070648;28;20203;-78
2023/07/13 05:55:24;;;;;;;2.83;0.90;;;21.90;83.80;;;;;;5074178;28;20396;-79
2023/07/13 05:57:49;;;;;;;3.13;0.80;;;22.10;83.90;;;;;;5073851;28;20180;-79
2023/07/13 06:00:16;;;;;;;4.27;1.00;;;22.20;84.00;;;;;;5058158;28;20172;-78
2023/07/13 06:02:42;;;;;;;3.43;0.90;;;22.40;84.30;;;;;;5073891;28;20188;-78
2023/07/13 06:05:08;;;;;;;2.13;0.80;;;22.80;84.90;;;;;;5077858;28;21005;-79
2023/07/13 06:07:34;;;;;;;2.30;0.80;;;23.20;85.60;;;;;;5079176;28;21022;-78
2023/07/13 06:09:59;;;;;;;5.60;1.10;;;23.70;85.50;;;;;;5077479;28;20607;-79
2023/07/13 06:12:26;;;;;;;2.30;1.00;;;24.20;85.10;;;;;;5082775;28;20192;-79
2023/07/13 06:14:52;;;;;;;3.97;0.70;;;24.50;83.80;;;;;;5074989;28;20293;-80
2023/07/13 06:17:17;;;;;;;3.53;0.70;;;24.80;82.70;;;;;;5079217;28;20571;-80
2023/07/13 06:19:43;;;;;;;5.30;1.63;;;25.10;82.40;;;;;;5068148;28;20575;-80
2023/07/13 06:22:09;;;;;;;2.03;0.80;;;25.60;82.20;;;;;;5089744;28;20188;-80
2023/07/13 06:24:35;;;;;;;3.13;0.80;;;26.10;82.20;;;;;;5089896;28;20165;-79
2023/07/13 06:27:00;;;;;;;2.57;0.83;;;26.80;82.10;;;;;;5079241;28;20237;-77
2023/07/13 06:29:27;;;;;;;3.80;0.80;;;27.30;81.00;;;;;;5069988;28;20542;-76
2023/07/13 06:31:52;;;;;;;4.00;0.80;;;27.90;79.00;;;;;;5068943;28;20614;-76
2023/07/13 06:34:18;;;;;;;4.87;1.00;;;28.30;77.70;;;;;;5070751;28;20229;-76
2023/07/13 06:36:44;;;;;;;3.50;0.70;;;28.70;76.30;;;;;;5068749;28;20165;-77
2023/07/13 06:39:10;;;;;;;2.87;0.90;;;29.20;74.60;;;;;;5070808;28;20162;-77
2023/07/13 06:41:36;;;;;;;5.50;0.70;;;29.40;72.90;;;;;;5052503;28;20613;-76
2023/07/13 06:44:02;;;;;;;3.50;0.80;;;29.50;71.20;;;;;;5069557;28;20178;-76
2023/07/13 06:46:29;;;;;;;3.37;0.63;;;29.50;69.10;;;;;;5069920;28;21133;-76
2023/07/13 06:48:55;;;;;;;2.60;0.90;;;29.50;68.00;;;;;;5068322;28;20539;-76
2023/07/13 06:51:21;;;;;;;3.97;0.70;;;29.80;68.50;;;;;;5069981;28;20575;-77
2023/07/13 06:53:47;;;;;;;2.10;0.73;;;29.90;67.20;;;;;;5070197;28;20616;-77
2023/07/13 06:56:13;;;;;;;3.40;1.13;;;29.70;65.70;;;;;;5070428;28;20203;-77
2023/07/13 06:58:39;;;;;;;2.53;0.80;;;29.50;64.50;;;;;;5069744;28;20628;-77
2023/07/13 07:01:05;;;;;;;2.93;0.70;;;29.20;63.60;;;;;;5070510;28;20571;-77
2023/07/13 07:03:31;;;;;;;3.50;0.80;;;28.90;63.00;;;;;;5070395;28;20606;-77
2023/07/13 07:06:11;;;;;;;3.33;0.73;;;28.50;62.70;;;;;;5069169;28;21104;-77
2023/07/13 07:08:37;;;;;;;4.90;1.07;;;28.20;62.50;;;;;;5068825;28;20186;-77
2023/07/13 07:11:03;;;;;;;1.80;0.90;;;27.90;63.20;;;;;;5068791;28;20562;-76
2023/07/13 07:13:30;;;;;;;3.00;0.90;;;27.70;63.50;;;;;;5068756;28;20196;-76
2023/07/13 07:15:55;;;;;;;2.73;0.77;;;27.60;64.30;;;;;;5070180;28;20265;-76
2023/07/13 07:18:21;;;;;;;2.40;0.90;;;27.80;65.30;;;;;;5069572;28;20586;-75
2023/07/13 07:20:48;;;;;;;2.03;0.97;;;27.90;65.40;;;;;;5070260;28;20172;-76
2023/07/13 07:23:14;;;;;;;3.33;1.60;;;28.00;65.30;;;;;;5068760;28;20202;-76
2023/07/13 07:25:41;;;;;;;5.00;1.00;;;28.00;64.70;;;;;;5068423;28;20597;-76
2023/07/13 07:28:08;;;;;;;4.70;1.10;;;28.00;64.30;;;;;;5069898;28;20583;-76
2023/07/13 07:30:34;;;;;;;3.17;1.07;;;27.90;63.90;;;;;;5051793;28;20578;-76
2023/07/13 07:33:01;;;;;;;2.10;0.90;;;27.90;63.90;;;;;;5051916;28;21219;-76
2023/07/13 07:35:27;;;;;;;4.10;0.80;;;27.80;63.70;;;;;;5068944;28;20622;-76
2023/07/13 07:37:52;;;;;;;5.20;0.80;;;27.70;63.50;;;;;;5072444;28;20597;-77
2023/07/13 07:40:18;;;;;;;1.83;0.67;;;27.60;63.50;;;;;;5075385;28;20218;-77
2023/07/13 07:42:44;;;;;;;7.07;0.70;;;27.50;63.60;;;;;;5076156;28;20192;-77
2023/07/13 07:45:11;;;;;;;2.40;0.90;;;27.30;63.50;;;;;;5075399;28;20575;-77
2023/07/13 07:47:37;;;;;;;2.57;0.90;;;27.20;63.60;;;;;;5075472;28;20211;-76
2023/07/13 07:50:03;;;;;;;4.17;0.70;;;27.10;63.70;;;;;;5075193;28;20610;-76
2023/07/13 07:52:29;;;;;;;8.43;1.23;;;26.90;63.70;;;;;;5074340;28;20625;-76
2023/07/13 07:54:55;;;;;;;4.73;0.87;;;26.80;63.90;;;;;;5075387;28;20667;-76
2023/07/13 07:57:21;;;;;;;3.90;0.80;;;26.60;64.00;;;;;;5074496;28;20578;-76
2023/07/13 07:59:48;;;;;;;3.83;0.90;;;26.60;64.30;;;;;;5075549;28;20575;-76
2023/07/13 08:02:13;;;;;;;5.87;1.27;;;26.50;64.60;;;;;;5076217;28;20253;-76
2023/07/13 08:04:39;;;;;;;2.47;0.90;;;26.40;65.00;;;;;;5075099;28;20577;-76
2023/07/13 08:07:06;;;;;;;2.20;0.90;;;26.40;65.40;;;;;;5074769;28;20184;-76
2023/07/13 08:09:32;;;;;;;3.10;1.00;;;26.40;65.70;;;;;;5057268;28;20184;-75
2023/07/13 08:11:58;;;;;;;6.20;1.03;;;26.40;65.70;;;;;;5069730;28;20642;-76
2023/07/13 08:14:23;;;;;;;2.00;1.00;;;26.50;66.10;;;;;;5090796;28;20746;-75
2023/07/13 08:16:49;;;;;;;2.73;1.23;;;26.50;66.00;;;;;;5075503;28;20180;-75
2023/07/13 08:19:15;;;;;;;5.27;1.00;;;26.60;66.10;;;;;;5075758;28;20168;-74
2023/07/13 08:21:42;;;;;;;1.97;0.80;;;26.70;66.10;;;;;;5075695;28;20188;-75
2023/07/13 08:24:09;;;;;;;4.43;0.90;;;26.80;66.00;;;;;;5074871;28;20180;-75
2023/07/13 08:26:35;;;;;;;3.17;0.80;;;26.90;65.90;;;;;;5090529;28;21010;-75
2023/07/13 08:29:02;;;;;;;4.67;1.00;;;26.90;66.00;;;;;;5075272;28;20676;-75
2023/07/13 08:31:27;;;;;;;3.30;0.90;;;27.00;66.10;;;;;;5073980;28;20199;-75
2023/07/13 08:33:53;;;;;;;3.10;1.03;;;27.10;66.30;;;;;;5076111;28;20570;-75
2023/07/13 08:36:19;;;;;;;7.90;1.00;;;27.30;66.10;;;;;;5075388;28;20202;-75
2023/07/13 08:38:44;;;;;;;4.57;1.13;;;27.40;66.80;;;;;;5075448;28;20196;-75
2023/07/13 08:41:16;;;;;;;2.93;1.07;;;27.60;65.90;;;;;;5075329;28;20639;-75
2023/07/13 08:43:46;;;;;;;2.83;0.90;;;27.80;65.30;;;;;;5074617;28;20208;-75
2023/07/13 08:46:17;;;;;;;6.93;0.90;;;28.00;65.20;;;;;;5074064;28;20590;-75
2023/07/13 08:48:51;;;;;;;3.37;0.90;;;28.10;64.20;;;;;;5071362;28;20590;-75
2023/07/13 08:51:29;;;;;;;1.90;0.80;;;28.20;64.00;;;;;;5071083;28;20660;-76
2023/07/13 08:54:00;;;;;;;4.70;0.80;;;28.30;63.60;;;;;;5072313;28;20590;-76
2023/07/13 08:56:29;;;;;;;2.60;0.80;;;28.40;63.20;;;;;;5072456;28;20630;-75
2023/07/13 08:59:05;;;;;;;3.57;1.17;;;28.60;63.30;;;;;;5071861;28;20597;-75
2023/07/13 09:01:41;;;;;;;5.17;0.80;;;28.70;62.70;;;;;;5071082;28;21228;-79
2023/07/13 09:04:15;;;;;;;2.47;1.00;;;28.90;62.30;;;;;;5071197;28;21307;-76
2023/07/13 09:06:59;;;;;;;4.80;0.93;;;29.10;62.10;;;;;;5053962;28;20693;-76
2023/07/13 09:09:28;;;;;;;2.60;1.10;;;29.20;61.70;;;;;;5072228;28;20675;-77
2023/07/13 09:12:33;;;;;;;3.70;1.20;;;29.30;61.10;;;;;;5064148;28;20630;-75
2023/07/13 09:15:01;;;;;;;2.50;0.90;;;29.30;59.60;;;;;;5018634;28;20676;-75
2023/07/13 09:17:32;;;;;;;3.80;1.00;;;29.30;59.90;;;;;;5077613;28;20588;-75
2023/07/13 09:20:09;;;;;;;4.73;1.07;;;29.30;59.70;;;;;;5083450;28;20584;-77
2023/07/13 09:22:37;;;;;;;2.13;0.90;;;29.40;59.80;;;;;;5092221;28;20659;-77
2023/07/13 09:25:25;;;;;;;4.77;0.73;;;29.60;59.60;;;;;;5090891;28;21171;-78
2023/07/13 09:27:53;;;;;;;3.40;1.20;;;29.70;59.50;;;;;;5083472;28;20601;-78
2023/07/13 09:30:33;;;;;;;3.27;0.90;;;29.90;59.70;;;;;;5073985;28;21046;-78
2023/07/13 09:32:59;;;;;;;3.60;0.80;;;30.00;59.00;;;;;;5063919;28;20638;-75
2023/07/13 09:35:28;;;;;;;2.93;1.27;;;30.20;59.20;;;;;;5090969;28;20652;-76
2023/07/13 09:37:59;;;;;;;2.40;0.90;;;30.30;58.80;;;;;;5085236;28;20270;-77
2023/07/13 09:40:40;;;;;;;3.40;0.97;;;30.40;58.20;;;;;;5071049;28;20610;-77
2023/07/13 09:43:10;;;;;;;5.23;0.93;;;30.40;57.50;;;;;;5069780;28;20614;-77
2023/07/13 09:45:37;;;;;;;2.10;0.80;;;30.30;57.40;;;;;;5071306;28;20958;-76
2023/07/13 09:48:20;;;;;;;3.10;1.10;;;30.20;57.10;;;;;;5077515;28;21134;-75
2023/07/13 09:50:46;;;;;;;3.47;1.20;;;30.20;57.10;;;;;;5091866;28;21000;-76
2023/07/13 09:53:17;;;;;;;3.07;0.70;;;30.20;57.50;;;;;;5089715;28;21000;-75
2023/07/13 09:55:45;;;;;;;4.93;0.80;;;30.20;57.30;;;;;;5090034;28;20631;-76
2023/07/13 09:58:23;;;;;;;4.10;1.10;;;30.30;57.40;;;;;;5060453;28;20595;-76
2023/07/13 10:01:04;;;;;;;3.60;0.90;;;30.30;56.80;;;;;;5032281;28;21130;-75
2023/07/13 10:03:38;;;;;;;2.90;0.90;;;30.30;56.60;;;;;;5068168;28;20606;-75
2023/07/13 10:06:16;;;;;;;3.00;0.90;;;30.30;56.30;;;;;;5069998;28;20914;-75
2023/07/13 10:08:45;;;;;;;3.30;1.10;;;30.30;55.90;;;;;;5055965;28;20580;-75
2023/07/13 10:11:18;;;;;;;4.40;1.03;;;30.30;56.10;;;;;;5049293;28;20575;-76
2023/07/13 10:14:02;;;;;;;4.80;0.90;;;30.40;56.30;;;;;;5049837;28;21159;-75
2023/07/13 10:16:34;;;;;;;5.30;1.00;;;30.60;56.20;;;;;;5063624;28;20969;-76
2023/07/13 10:19:12;;;;;;;4.60;1.83;;;30.70;55.60;;;;;;5063694;28;20604;-76
2023/07/13 10:21:53;;;;;;;1.93;0.90;;;30.90;55.00;;;;;;5061109;28;20966;-76
2023/07/13 10:24:22;;;;;;;3.20;1.07;;;31.10;55.20;;;;;;5081998;28;21202;-78
2023/07/13 10:26:57;;;;;;;3.70;0.90;;;31.20;54.60;;;;;;5050524;28;20616;-76
2023/07/13 10:29:26;;;;;;;3.30;1.00;;;31.20;53.80;;;;;;5049860;28;21126;-75
2023/07/13 10:31:52;;;;;;;2.80;0.90;;;31.10;53.80;;;;;;5070262;28;20946;-75
2023/07/13 10:34:18;;;;;;;3.70;0.90;;;31.00;53.50;;;;;;5066573;28;20586;-75
2023/07/13 10:36:49;;;;;;;2.33;0.77;;;30.90;53.50;;;;;;5049937;28;20674;-75
2023/07/13 10:39:25;;;;;;;2.80;0.90;;;30.90;53.40;;;;;;5049149;28;21098;-75
2023/07/13 10:41:57;;;;;;;2.83;0.77;;;30.80;52.50;;;;;;5048845;28;20603;-75
2023/07/13 10:44:28;;;;;;;3.90;0.87;;;30.80;53.40;;;;;;5049601;28;20603;-75
2023/07/13 10:47:07;;;;;;;2.37;0.83;;;30.90;53.40;;;;;;5050115;28;20677;-75
2023/07/13 10:49:35;;;;;;;2.20;0.80;;;31.00;53.40;;;;;;5063576;28;20585;-75
2023/07/13 10:52:02;;;;;;;2.27;0.73;;;31.10;52.80;;;;;;5081811;28;20635;-74
2023/07/13 10:54:31;;;;;;;2.90;0.97;;;31.20;52.60;;;;;;5090445;28;20569;-74
2023/07/13 10:57:16;;;;;;;4.33;1.00;;;31.20;52.50;;;;;;5084003;28;21133;-75
2023/07/13 10:59:45;;;;;;;3.70;1.10;;;31.30;51.70;;;;;;5070468;28;20571;-75
2023/07/13 11:02:23;;;;;;;2.27;0.80;;;31.30;52.10;;;;;;5070237;28;20613;-75
2023/07/13 11:04:49;;;;;;;2.93;0.93;;;31.20;51.60;;;;;;5070172;28;20589;-76
2023/07/13 11:07:24;;;;;;;6.83;1.03;;;31.00;51.30;;;;;;5068372;28;20575;-75
2023/07/13 11:09:57;;;;;;;3.93;0.83;;;30.80;50.80;;;;;;5069833;28;20632;-76
2023/07/13 11:12:22;;;;;;;2.23;1.03;;;30.40;50.70;;;;;;5068455;28;20693;-75
2023/07/13 11:14:54;;;;;;;3.57;1.03;;;30.00;50.60;;;;;;5068699;28;20713;-75
2023/07/13 11:17:58;;;;;;;2.50;0.83;;;29.60;50.90;;;;;;5069653;28;20222;-75
2023/07/13 11:20:32;;;;;;;2.80;1.00;;;29.30;51.50;;;;;;5068668;28;20579;-75
2023/07/13 11:23:12;;;;;;;3.30;0.80;;;28.90;51.70;;;;;;5058463;28;20619;-75
2023/07/13 11:25:38;;;;;;;2.53;0.70;;;28.60;52.10;;;;;;5068252;28;20588;-80
2023/07/13 11:28:10;;;;;;;3.70;0.90;;;28.30;52.40;;;;;;5069883;28;20567;-76
2023/07/13 11:30:49;;;;;;;3.13;1.00;;;28.20;52.90;;;;;;5070246;28;21175;-75
2023/07/13 11:33:40;;;;;;;4.13;1.00;;;28.20;53.10;;;;;;5068477;28;20598;-74
2023/07/13 11:36:24;;;;;;;2.50;1.00;;;28.20;53.20;;;;;;5053750;28;20714;-73
2023/07/13 11:39:12;;;;;;;5.40;1.20;;;28.20;53.30;;;;;;5030835;28;20682;-74
2023/07/13 11:41:45;;;;;;;5.73;1.10;;;28.20;53.30;;;;;;5047976;28;21197;-74
2023/07/13 11:44:15;;;;;;;3.97;1.10;;;28.20;53.20;;;;;;5048883;28;20623;-74
2023/07/13 11:46:46;;;;;;;2.53;0.60;;;28.10;53.20;;;;;;5049351;28;20579;-74
2023/07/13 11:49:16;;;;;;;2.40;0.77;;;28.00;53.10;;;;;;5048294;28;20584;-74
2023/07/13 11:51:43;;;;;;;2.23;0.70;;;27.80;53.20;;;;;;5047986;28;20622;-74
2023/07/13 11:54:26;;;;;;;3.70;0.93;;;27.80;53.40;;;;;;5031791;28;20663;-74
2023/07/13 11:56:54;;;;;;;3.47;1.10;;;27.70;53.70;;;;;;5051332;28;20602;-74
2023/07/13 11:59:21;;;;;;;2.73;1.00;;;27.70;53.80;;;;;;5080947;28;20927;-73
2023/07/13 12:01:52;;;;;;;2.07;0.80;;;27.80;53.80;;;;;;5090310;28;20593;-73
2023/07/13 12:04:31;;;;;;;3.20;0.87;;;27.80;53.90;;;;;;5078406;28;20575;-73
2023/07/13 12:07:23;;;;;;;4.13;1.10;;;27.80;53.80;;;;;;5086125;28;20704;-73
2023/07/13 12:09:50;;;;;;;2.77;0.90;;;27.80;53.70;;;;;;5083977;28;20585;-73
2023/07/13 12:12:22;;;;;;;4.07;0.80;;;27.90;53.80;;;;;;5090203;28;20589;-73
2023/07/13 12:14:51;;;;;;;3.07;0.90;;;27.90;53.70;;;;;;5088407;28;20617;-73
2023/07/13 12:17:23;;;;;;;4.70;1.03;;;27.90;53.60;;;;;;5095761;28;20951;-75
2023/07/13 12:19:50;;;;;;;3.43;1.00;;;27.80;53.60;;;;;;5071647;28;20581;-75
2023/07/13 12:22:19;;;;;;;3.40;0.83;;;27.80;53.60;;;;;;5089462;28;20616;-75
2023/07/13 12:24:45;;;;;;;2.60;0.70;;;27.80;53.30;;;;;;5092038;28;20772;-75
2023/07/13 12:27:26;;;;;;;3.50;0.80;;;27.70;53.20;;;;;;5066943;28;20678;-75
2023/07/13 12:30:01;;;;;;;3.27;1.00;;;27.70;53.30;;;;;;5080217;28;20720;-75
2023/07/13 12:32:29;;;;;;;3.40;0.80;;;27.80;53.40;;;;;;5071009;28;20624;-75
2023/07/13 12:35:30;;;;;;;2.70;0.80;;;27.90;53.50;;;;;;5083962;28;20622;-76
2023/07/13 12:37:58;;;;;;;2.20;0.97;;;28.00;53.60;;;;;;5033404;28;21160;-76
2023/07/13 12:40:31;;;;;;;3.80;1.10;;;28.30;54.60;;;;;;5053274;28;20687;-77
2023/07/13 12:42:57;;;;;;;2.90;0.87;;;28.60;55.00;;;;;;5034676;28;20603;-74
2023/07/13 12:45:25;;;;;;;2.03;0.80;;;28.90;55.30;;;;;;5059972;28;20580;-76
2023/07/13 12:48:04;;;;;;;2.77;0.80;;;29.10;54.90;;;;;;5073058;28;20642;-76
2023/07/13 12:50:37;;;;;;;2.73;0.93;;;29.30;54.30;;;;;;5068991;28;20595;-77
2023/07/13 12:53:08;;;;;;;2.10;0.70;;;29.50;53.70;;;;;;5070849;28;21167;-76
2023/07/13 12:55:43;;;;;;;2.27;0.77;;;29.60;53.10;;;;;;5087214;28;20638;-76
2023/07/13 12:58:27;;;;;;;2.33;1.00;;;29.70;52.10;;;;;;5072661;28;20645;-76